createdAt,value
2022-10-01T00:02:44.295Z,97.80
2022-10-01T00:05:46.301Z,97.73
2022-10-01T00:08:50.637Z,97.70
2022-10-01T00:11:53.491Z,97.72
2022-10-01T00:14:55.273Z,97.67
2022-10-01T00:17:57.118Z,97.37
2022-10-01T00:20:58.868Z,97.45
2022-10-01T00:24:04.783Z,97.35
2022-10-01T00:27:06.729Z,97.57
2022-10-01T00:30:09.155Z,97.38
2022-10-01T00:33:10.965Z,97.23
2022-10-01T00:36:12.938Z,96.99
2022-10-01T00:39:14.944Z,96.92
2022-10-01T00:42:23.351Z,96.85
2022-10-01T00:45:25.244Z,96.73
2022-10-01T00:48:30.110Z,96.70
2022-10-01T00:51:39.746Z,96.49
2022-10-01T00:54:46.852Z,96.39
2022-10-01T00:57:48.888Z,96.65
2022-10-01T01:00:54.026Z,96.71
2022-10-01T01:03:56.938Z,96.71
2022-10-01T01:07:02.412Z,96.68
2022-10-01T01:10:05.504Z,96.82
2022-10-01T01:13:25.681Z,97.27
2022-10-01T01:16:41.912Z,97.45
2022-10-01T01:20:11.015Z,97.56
2022-10-01T01:23:16.111Z,97.64
2022-10-01T01:26:26.907Z,97.62
2022-10-01T01:29:50.410Z,97.67
2022-10-01T01:33:03.214Z,98.17
2022-10-01T01:36:25.632Z,98.82
2022-10-01T01:39:32.071Z,98.43
2022-10-01T01:42:37.289Z,98.34
2022-10-01T01:45:40.432Z,98.45
2022-10-01T01:48:47.552Z,98.37
2022-10-01T01:51:54.443Z,98.48
2022-10-01T01:54:57.611Z,98.94
2022-10-01T01:57:59.559Z,98.98
2022-10-01T02:01:02.693Z,98.82
2022-10-01T02:04:08.422Z,98.72
2022-10-01T02:07:44.313Z,98.85
2022-10-01T02:11:14.039Z,98.98
2022-10-01T02:14:35.781Z,98.76
2022-10-01T02:17:40.507Z,98.69
2022-10-01T02:21:04.263Z,98.53
2022-10-01T02:24:08.836Z,98.44
2022-10-01T02:27:18.550Z,98.53
2022-10-01T02:30:20.541Z,98.55
2022-10-01T02:33:27.379Z,98.46
2022-10-01T02:36:33.013Z,98.47
2022-10-01T02:39:37.993Z,98.58
2022-10-01T02:42:43.663Z,98.66
2022-10-01T02:45:51.709Z,98.80
2022-10-01T02:48:53.909Z,98.55
2022-10-01T02:51:55.654Z,98.71
2022-10-01T02:55:03.844Z,98.69
2022-10-01T02:58:06.898Z,98.88
2022-10-01T03:01:08.958Z,98.77
2022-10-01T03:04:10.748Z,98.75
2022-10-01T03:07:12.477Z,98.57
2022-10-01T03:10:16.255Z,98.52
2022-10-01T03:13:19.793Z,98.61
2022-10-01T03:16:21.612Z,98.34
2022-10-01T03:19:23.559Z,98.55
2022-10-01T03:22:25.378Z,98.39
2022-10-01T03:25:27.197Z,98.49
2022-10-01T03:28:29.095Z,98.61
2022-10-01T03:31:31.296Z,98.52
2022-10-01T03:34:33.538Z,98.56
2022-10-01T03:37:35.527Z,98.48
2022-10-01T03:40:39.131Z,98.59
2022-10-01T03:43:40.915Z,98.30
2022-10-01T03:46:42.682Z,98.36
2022-10-01T03:49:44.467Z,98.37
2022-10-01T03:52:47.206Z,98.34
2022-10-01T03:55:49.128Z,98.24
2022-10-01T03:58:51.543Z,98.25
2022-10-01T04:01:54.193Z,98.09
2022-10-01T04:04:56.172Z,98.19
2022-10-01T04:07:59.731Z,97.95
2022-10-01T04:11:01.631Z,98.22
2022-10-01T04:14:03.470Z,97.98
2022-10-01T04:17:06.226Z,97.89
2022-10-01T04:20:08.643Z,97.77
2022-10-01T04:23:10.682Z,97.64
2022-10-01T04:26:12.754Z,97.78
2022-10-01T04:29:14.591Z,97.68
2022-10-01T04:32:21.631Z,97.65
2022-10-01T04:35:24.274Z,97.55
2022-10-01T04:38:26.520Z,97.73
2022-10-01T04:41:32.256Z,97.20
2022-10-01T04:44:34.281Z,97.33
2022-10-01T04:47:37.707Z,97.27
2022-10-01T04:50:39.768Z,97.25
2022-10-01T04:53:41.708Z,97.19
2022-10-01T04:56:43.543Z,97.10
2022-10-01T04:59:45.397Z,97.03
2022-10-01T05:02:49.228Z,97.28
2022-10-01T05:05:51.075Z,97.39
2022-10-01T05:08:52.837Z,97.26
2022-10-01T05:11:54.818Z,97.24
2022-10-01T05:15:00.632Z,97.10
2022-10-01T05:18:03.496Z,97.06
2022-10-01T05:21:07.926Z,97.18
2022-10-01T05:24:20.186Z,96.85
2022-10-01T05:27:22.124Z,96.72
2022-10-01T05:30:26.592Z,96.77
2022-10-01T05:33:31.675Z,97.01
2022-10-01T05:36:40.576Z,96.63
2022-10-01T05:39:44.420Z,96.53
2022-10-01T05:42:47.230Z,96.38
2022-10-01T05:45:49.729Z,96.18
2022-10-01T05:48:51.580Z,96.37
2022-10-01T05:51:53.377Z,96.25
2022-10-01T05:54:55.733Z,96.09
2022-10-01T05:58:03.668Z,96.26
2022-10-01T06:01:05.529Z,96.16
2022-10-01T06:04:07.386Z,95.89
2022-10-01T06:07:11.329Z,95.96
2022-10-01T06:10:13.843Z,95.49
2022-10-01T06:13:24.723Z,95.26
2022-10-01T06:16:29.556Z,95.82
2022-10-01T06:19:37.084Z,95.59
2022-10-01T06:22:57.994Z,95.60
2022-10-01T06:26:05.854Z,95.70
2022-10-01T06:29:11.699Z,95.71
2022-10-01T06:32:22.917Z,95.69
2022-10-01T06:36:05.915Z,95.21
2022-10-01T06:39:36.652Z,95.20
2022-10-01T06:43:01.435Z,95.30
2022-10-01T06:46:07.989Z,95.30
2022-10-01T06:49:27.402Z,95.28
2022-10-01T06:52:50.246Z,95.16
2022-10-01T06:55:52.242Z,94.55
2022-10-01T06:58:54.788Z,94.71
2022-10-01T07:01:57.605Z,94.65
2022-10-01T07:05:00.053Z,94.77
2022-10-01T07:08:03.217Z,93.58
2022-10-01T07:11:05.189Z,94.00
2022-10-01T07:14:08.115Z,94.16
2022-10-01T07:17:09.824Z,94.08
2022-10-01T07:20:12.699Z,93.51
2022-10-01T07:23:15.715Z,93.44
2022-10-01T07:26:18.982Z,93.20
2022-10-01T07:29:20.945Z,92.83
2022-10-01T07:32:22.762Z,93.08
2022-10-01T07:35:25.061Z,92.82
2022-10-01T07:38:26.903Z,93.09
2022-10-01T07:41:28.619Z,93.08
2022-10-01T07:44:30.524Z,93.08
2022-10-01T07:47:32.830Z,92.82
2022-10-01T07:50:35.131Z,92.81
2022-10-01T07:53:36.930Z,92.94
2022-10-01T07:56:38.794Z,92.85
2022-10-01T07:59:41.005Z,93.11
2022-10-01T08:02:53.568Z,92.73
2022-10-01T08:05:55.305Z,92.72
2022-10-01T08:08:58.256Z,92.22
2022-10-01T08:12:02.942Z,91.85
2022-10-01T08:15:08.303Z,91.18
2022-10-01T08:18:11.392Z,90.94
2022-10-01T08:21:15.465Z,90.65
2022-10-01T08:24:18.026Z,90.80
2022-10-01T08:27:19.909Z,90.77
2022-10-01T08:30:21.665Z,90.33
2022-10-01T08:33:23.964Z,89.57
2022-10-01T08:36:25.790Z,88.64
2022-10-01T08:39:27.568Z,87.50
2022-10-01T08:42:43.952Z,86.25
2022-10-01T08:45:51.678Z,85.70
2022-10-01T08:49:11.179Z,84.51
2022-10-01T08:52:33.716Z,84.54
2022-10-01T08:55:37.475Z,83.62
2022-10-01T08:58:44.877Z,82.33
2022-10-01T09:01:49.188Z,81.25
2022-10-01T09:04:58.865Z,80.05
2022-10-01T09:08:09.556Z,78.72
2022-10-01T09:11:32.790Z,77.71
2022-10-01T09:14:48.117Z,77.94
2022-10-01T09:18:08.549Z,77.38
2022-10-01T09:21:41.968Z,75.48
2022-10-01T09:24:46.990Z,76.25
2022-10-01T09:27:48.938Z,76.12
2022-10-01T09:30:55.793Z,76.31
2022-10-01T09:34:09.204Z,75.48
2022-10-01T09:37:32.639Z,74.43
2022-10-01T09:40:42.773Z,74.54
2022-10-01T09:43:45.330Z,74.06
2022-10-01T09:46:47.393Z,72.78
2022-10-01T09:49:49.887Z,71.49
2022-10-01T09:52:52.589Z,72.61
2022-10-01T09:56:02.795Z,70.22
2022-10-01T09:59:11.680Z,69.84
2022-10-01T10:02:28.626Z,69.67
2022-10-01T10:05:46.645Z,69.92
2022-10-01T10:08:48.412Z,69.74
2022-10-01T10:11:50.702Z,69.39
2022-10-01T10:14:55.827Z,70.37
2022-10-01T10:18:23.033Z,70.09
2022-10-01T10:21:29.703Z,69.43
2022-10-01T10:24:34.140Z,69.27
2022-10-01T10:27:36.361Z,69.58
2022-10-01T10:30:38.272Z,70.04
2022-10-01T10:33:59.389Z,68.65
2022-10-01T10:37:05.876Z,67.31
2022-10-01T10:40:11.026Z,67.00
2022-10-01T10:43:21.061Z,67.11
2022-10-01T10:46:32.050Z,66.63
2022-10-01T10:49:57.527Z,64.72
2022-10-01T10:52:59.463Z,66.33
2022-10-01T10:56:04.652Z,66.66
2022-10-01T10:59:08.409Z,66.06
2022-10-01T11:02:19.531Z,66.33
2022-10-01T11:05:24.500Z,64.97
2022-10-01T11:08:28.982Z,64.46
2022-10-01T11:11:54.094Z,63.50
2022-10-01T11:15:11.086Z,62.33
2022-10-01T11:18:58.530Z,61.95
2022-10-01T11:22:02.975Z,62.22
2022-10-01T11:25:10.582Z,62.29
2022-10-01T11:28:18.030Z,62.37
2022-10-01T11:31:47.131Z,60.78
2022-10-01T11:35:18.687Z,61.69
2022-10-01T11:38:23.689Z,62.18
2022-10-01T11:41:38.762Z,60.42
2022-10-01T11:45:00.510Z,60.61
2022-10-01T11:48:12.944Z,60.62
2022-10-01T11:51:19.675Z,60.88
2022-10-01T11:54:29.572Z,60.19
2022-10-01T11:57:51.669Z,60.65
2022-10-01T12:01:03.478Z,59.27
2022-10-01T12:04:45.942Z,58.45
2022-10-01T12:08:02.637Z,58.54
2022-10-01T12:11:35.881Z,56.43
2022-10-01T12:14:37.598Z,55.74
2022-10-01T12:17:40.038Z,55.07
2022-10-01T12:20:47.340Z,55.63
2022-10-01T12:23:56.219Z,55.89
2022-10-01T12:27:18.515Z,55.92
2022-10-01T12:30:22.891Z,54.64
2022-10-01T12:33:37.676Z,52.30
2022-10-01T12:36:48.745Z,53.95
2022-10-01T12:40:14.332Z,55.10
2022-10-01T12:43:33.907Z,55.29
2022-10-01T12:46:57.427Z,55.19
2022-10-01T12:50:07.198Z,56.14
2022-10-01T12:53:45.289Z,55.32
2022-10-01T12:56:55.264Z,54.79
2022-10-01T13:00:08.125Z,54.11
2022-10-01T13:03:37.369Z,55.78
2022-10-01T13:06:57.671Z,55.13
2022-10-01T13:10:00.009Z,55.62
2022-10-01T13:13:10.556Z,56.25
2022-10-01T13:16:27.416Z,57.10
2022-10-01T13:19:55.222Z,56.26
2022-10-01T13:23:26.214Z,56.73
2022-10-01T13:26:38.346Z,57.07
2022-10-01T13:29:43.145Z,56.95
2022-10-01T13:32:53.666Z,56.29
2022-10-01T13:36:02.154Z,55.86
2022-10-01T13:39:04.159Z,56.27
2022-10-01T13:42:06.771Z,55.94
2022-10-01T13:45:23.182Z,55.11
2022-10-01T13:48:26.752Z,55.49
2022-10-01T13:51:36.566Z,56.14
2022-10-01T13:54:47.602Z,55.19
2022-10-01T13:57:49.433Z,55.96
2022-10-01T14:00:54.527Z,55.67
2022-10-01T14:04:08.801Z,55.65
2022-10-01T14:07:24.268Z,55.97
2022-10-01T14:10:35.085Z,56.82
2022-10-01T14:14:05.059Z,57.12
2022-10-01T14:17:10.923Z,57.62
2022-10-01T14:20:30.580Z,57.44
2022-10-01T14:24:06.340Z,58.20
2022-10-01T14:27:22.513Z,58.64
2022-10-01T14:30:29.121Z,59.38
2022-10-01T14:33:49.221Z,59.40
2022-10-01T14:36:53.560Z,60.01
2022-10-01T14:40:12.287Z,60.81
2022-10-01T14:43:26.251Z,61.35
2022-10-01T14:46:28.136Z,61.48
2022-10-01T14:49:32.661Z,62.45
2022-10-01T14:52:43.203Z,63.17
2022-10-01T14:55:49.583Z,63.35
2022-10-01T14:59:01.800Z,64.32
2022-10-01T15:02:17.892Z,64.64
2022-10-01T15:05:26.341Z,65.23
2022-10-01T15:08:41.459Z,64.93
2022-10-01T15:11:44.959Z,65.64
2022-10-01T15:14:47.380Z,65.70
2022-10-01T15:17:54.253Z,66.74
2022-10-01T15:21:06.777Z,67.61
2022-10-01T15:24:41.717Z,68.17
2022-10-01T15:27:45.904Z,69.23
2022-10-01T15:30:47.917Z,69.92
2022-10-01T15:33:52.566Z,70.66
2022-10-01T15:36:55.296Z,71.03
2022-10-01T15:39:59.088Z,71.76
2022-10-01T15:43:21.757Z,72.27
2022-10-01T15:46:25.298Z,72.25
2022-10-01T15:49:28.314Z,73.04
2022-10-01T15:52:58.031Z,73.69
2022-10-01T15:56:11.098Z,73.97
2022-10-01T15:59:19.674Z,74.43
2022-10-01T16:02:26.457Z,74.73
2022-10-01T16:05:44.600Z,75.31
2022-10-01T16:09:13.798Z,75.88
2022-10-01T16:12:22.687Z,76.03
2022-10-01T16:15:31.102Z,75.77
2022-10-01T16:18:34.781Z,75.91
2022-10-01T16:21:40.845Z,76.37
2022-10-01T16:24:47.656Z,76.53
2022-10-01T16:28:04.656Z,77.21
2022-10-01T16:31:06.573Z,77.39
2022-10-01T16:34:22.940Z,78.10
2022-10-01T16:37:25.804Z,77.94
2022-10-01T16:40:33.960Z,77.80
2022-10-01T16:43:43.578Z,78.35
2022-10-01T16:46:45.889Z,78.37
2022-10-01T16:49:52.857Z,78.75
2022-10-01T16:52:58.673Z,78.88
2022-10-01T16:56:01.545Z,79.02
2022-10-01T16:59:06.983Z,78.77
2022-10-01T17:02:23.121Z,79.17
2022-10-01T17:05:28.548Z,79.37
2022-10-01T17:08:30.769Z,79.62
2022-10-01T17:11:34.806Z,79.49
2022-10-01T17:14:39.558Z,79.36
2022-10-01T17:17:45.572Z,79.52
2022-10-01T17:20:51.251Z,79.69
2022-10-01T17:23:56.946Z,79.83
2022-10-01T17:27:03.080Z,80.21
2022-10-01T17:30:08.546Z,80.16
2022-10-01T17:33:12.711Z,80.08
2022-10-01T17:36:17.209Z,80.53
2022-10-01T17:39:23.158Z,80.93
2022-10-01T17:42:47.069Z,81.03
2022-10-01T17:45:57.257Z,80.62
2022-10-01T17:49:02.129Z,80.73
2022-10-01T17:52:06.281Z,80.73
2022-10-01T17:55:08.857Z,80.96
2022-10-01T17:58:12.954Z,81.16
2022-10-01T18:01:21.994Z,81.17
2022-10-01T18:04:26.240Z,81.35
2022-10-01T18:07:30.152Z,81.35
2022-10-01T18:10:33.171Z,81.22
2022-10-01T18:13:37.952Z,81.09
2022-10-01T18:16:41.284Z,81.50
2022-10-01T18:19:54.309Z,82.02
2022-10-01T18:22:58.842Z,81.83
2022-10-01T18:26:07.774Z,82.28
2022-10-01T18:29:19.835Z,82.21
2022-10-01T18:32:27.447Z,82.38
2022-10-01T18:35:36.528Z,82.39
2022-10-01T18:38:42.077Z,82.38
2022-10-01T18:41:47.110Z,82.32
2022-10-01T18:44:59.741Z,82.64
2022-10-01T18:48:20.278Z,82.97
2022-10-01T18:51:52.887Z,83.09
2022-10-01T18:55:05.521Z,83.11
2022-10-01T18:58:35.293Z,82.77
2022-10-01T19:02:19.025Z,83.13
2022-10-01T19:05:30.907Z,83.26
2022-10-01T19:09:11.232Z,83.00
2022-10-01T19:12:56.518Z,83.03
2022-10-01T19:16:16.766Z,83.39
2022-10-01T19:20:03.158Z,83.32
2022-10-01T19:23:22.924Z,83.42
2022-10-01T19:26:40.126Z,83.21
2022-10-01T19:30:14.895Z,83.26
2022-10-01T19:33:19.767Z,83.52
2022-10-01T19:36:33.643Z,83.49
2022-10-01T19:39:43.263Z,83.80
2022-10-01T19:43:07.823Z,84.11
2022-10-01T19:46:28.941Z,84.52
2022-10-01T19:49:39.815Z,84.37
2022-10-01T19:52:45.168Z,84.47
2022-10-01T19:55:50.589Z,84.80
2022-10-01T19:59:04.169Z,84.99
2022-10-01T20:02:31.382Z,84.95
2022-10-01T20:05:58.463Z,84.86
2022-10-01T20:09:14.872Z,85.08
2022-10-01T20:12:24.627Z,85.06
2022-10-01T20:16:15.228Z,84.95
2022-10-01T20:19:19.852Z,84.86
2022-10-01T20:22:34.033Z,84.92
2022-10-01T20:25:44.616Z,84.70
2022-10-01T20:29:23.628Z,84.54
2022-10-01T20:32:37.341Z,84.55
2022-10-01T20:36:17.807Z,85.10
2022-10-01T20:39:33.084Z,85.65
2022-10-01T20:42:44.704Z,86.55
2022-10-01T20:45:51.534Z,87.04
2022-10-01T20:49:15.379Z,87.12
2022-10-01T20:52:22.184Z,87.73
2022-10-01T20:55:36.845Z,88.35
2022-10-01T20:58:46.446Z,88.85
2022-10-01T21:02:02.313Z,88.81
2022-10-01T21:05:17.139Z,88.82
2022-10-01T21:08:50.780Z,88.83
2022-10-01T21:12:02.137Z,88.73
2022-10-01T21:15:07.506Z,88.13
2022-10-01T21:18:22.733Z,88.05
2022-10-01T21:21:46.034Z,88.04
2022-10-01T21:24:57.303Z,88.00
2022-10-01T21:27:59.578Z,88.11
2022-10-01T21:31:39.183Z,87.80
2022-10-01T21:35:01.613Z,88.32
2022-10-01T21:38:15.480Z,88.24
2022-10-01T21:41:26.759Z,88.45
2022-10-01T21:45:01.005Z,88.56
2022-10-01T21:48:19.299Z,88.82
2022-10-01T21:51:41.244Z,89.44
2022-10-01T21:54:44.605Z,89.61
2022-10-01T21:57:55.191Z,89.99
2022-10-01T22:01:17.029Z,90.22
2022-10-01T22:04:38.365Z,90.41
2022-10-01T22:07:48.969Z,90.44
2022-10-01T22:10:54.425Z,90.43
2022-10-01T22:14:02.977Z,90.30
2022-10-01T22:17:14.856Z,90.57
2022-10-01T22:20:19.689Z,90.48
2022-10-01T22:23:21.593Z,90.86
2022-10-01T22:26:28.337Z,91.22
2022-10-01T22:29:32.022Z,91.78
2022-10-01T22:32:43.470Z,92.10
2022-10-01T22:35:57.998Z,92.36
2022-10-01T22:39:07.712Z,92.53
2022-10-01T22:42:35.551Z,92.72
2022-10-01T22:45:46.583Z,93.09
2022-10-01T22:48:51.189Z,93.30
2022-10-01T22:52:25.763Z,93.43
2022-10-01T22:55:56.633Z,93.69
2022-10-01T22:59:13.842Z,93.65
2022-10-01T23:02:27.389Z,93.59
2022-10-01T23:05:41.413Z,93.73
2022-10-01T23:09:02.790Z,93.94
2022-10-01T23:12:35.674Z,93.96
2022-10-01T23:15:49.538Z,93.97
2022-10-01T23:19:35.896Z,93.92
2022-10-01T23:22:46.816Z,93.76
2022-10-01T23:26:19.158Z,93.76
2022-10-01T23:29:32.185Z,93.78
2022-10-01T23:33:11.338Z,93.87
2022-10-01T23:36:42.838Z,93.90
2022-10-01T23:39:54.843Z,93.95
2022-10-01T23:43:03.454Z,94.07
2022-10-01T23:46:15.439Z,93.90
2022-10-01T23:49:23.263Z,93.74
2022-10-01T23:52:36.995Z,93.66
2022-10-01T23:56:11.989Z,93.62
2022-10-01T23:59:29.127Z,93.60
